函館空港の過去48時間の天気

函館空港 (Hakodate)

現在時刻: 4/25 15:45 JST (4/25 06:45 UTC) 以下の時間は現地時間です。

過去48時間のMETAR気象情報
時間 風向 風速(m/s) 視程 気温(℃) 湿度(%) 気圧(hPa) 天気現象
25 15:00 東北東 5 10km以上 7 87 1006 弱いしゅう雨
25 14:00 東北東 3 8,000m 8 87 1006 弱いしゅう雨
25 13:00 東北東 3 10km以上 8 87 1007 弱いしゅう雨
25 12:00 東北東 3 10km以上 8 87 1008 弱いしゅう雨
25 11:00 2 8,000m 8 87 1009 弱いしゅう雨
25 10:00 2 10km以上 8 87 1009 弱いしゅう雨
25 09:00 北東 2 10km以上 8 87 1010 弱いしゅう雨
25 08:00 東北東 3 10km以上 8 81 1010 弱いしゅう雨
25 07:00 3 10km以上 7 93 1010 弱いしゅう雨
25 06:10 東北東 3 10km以上 7 87 1011 弱いしゅう雨
24 20:00 4 8,000m 8 93 1014 弱いしゅう雨
24 19:00 3 6,000m 7 100 1014 弱いしゅう雨
24 18:36 3 6,000m 7 100 1014 弱いしゅう雨
24 18:00 3 7,000m 7 93 1014 弱いしゅう雨
24 17:00 3 10km以上 8 87 1014 弱いしゅう雨
24 16:20 3 10km以上 8 87 1014 弱いしゅう雨
24 16:00 4 10km以上 8 87 1015 弱いしゅう雨
24 15:46 東北東 3 10km以上 8 87 1014 弱いしゅう雨
24 15:27 3 10km以上 7 93 1015 弱いしゅう雨
24 15:00 6 10km以上 7 100 1015 弱いしゅう雨
24 14:00 5 10km以上 7 93 1015 弱いしゅう雨
24 13:00 4 10km以上 7 93 1016 弱いしゅう雨
24 12:17 6 8,000m 7 93 1016 弱いしゅう雨
24 12:00 6 8,000m 7 93 1017 弱いしゅう雨
24 11:21 6 7,000m 7 93 1017 弱いしゅう雨
24 11:00 6 5,000m 7 100 1017 弱いしゅう雨 もや
24 10:11 東北東 4 5,000m 8 93 1018 弱いしゅう雨 もや
24 10:00 東北東 5 4,500m 8 93 1018 弱いしゅう雨 もや
24 09:31 東北東 5 4,900m 8 93 1018 弱いしゅう雨 もや
24 09:00 東北東 6 5,000m 7 100 1018 弱いしゅう雨 もや
24 08:46 東北東 5 5,000m 7 100 1018 弱いしゅう雨 もや
24 08:00 東北東 5 6,000m 8 93 1019 弱いしゅう雨
24 07:50 東北東 5 6,000m 8 93 1019 弱いしゅう雨
24 07:36 東北東 5 6,000m 8 93 1019 弱いしゅう雨
24 07:00 東北東 5 5,000m 8 93 1019 弱いしゅう雨 もや
24 06:10 東北東 5 5,000m 8 93 1019 弱いしゅう雨 もや
23 20:00 東北東 4 10km以上 7 81 1023
23 19:00 東北東 2 10km以上 7 76 1023
23 18:00 4 10km以上 9 62 1023
23 17:00 5 10km以上 11 43 1023
23 16:00 東南東 7 10km以上 12 47 1023
RJCH 250600Z 06009KT 9999 -SHRA FEW012 BKN020 BKN035 07/05 Q1006
RJCH 250500Z 06005KT 020V090 8000 -SHRA FEW008 BKN020 BKN030 08/06 Q1006
RJCH 250400Z 07006KT 030V120 9999 -SHRA FEW010 BKN020 BKN035 08/06 Q1007
RJCH 250300Z 07005KT 020V120 9999 -SHRA FEW010 BKN020 BKN035 08/06 Q1008
RJCH 250200Z 08003KT 020V120 8000 -SHRA FEW010 BKN020 BKN035 08/06 Q1009
RJCH 250100Z 08004KT 030V120 9999 -SHRA FEW010 BKN020 BKN030 08/06 Q1009
RJCH 250000Z 05004KT 010V090 9999 -SHRA FEW010 BKN020 BKN030 08/06 Q1010
RJCH 242300Z 07006KT 010V120 9999 -SHRA FEW010 SCT020 BKN035 08/05 Q1010
RJCH 242200Z 08006KT 060V120 9999 -SHRA FEW015 BKN020 07/06 Q1010
RJCH 242110Z 07006KT 050V110 9999 -SHRA FEW010 SCT015 BKN020 07/05 Q1011 RMK 1ST010 3ST015 7CU020 A2986
RJCH 241100Z 10007KT 8000 -SHRA FEW005 BKN010 BKN015 08/07 Q1014
RJCH 241000Z 09005KT 6000 -SHRA FEW005 BKN010 BKN015 07/07 Q1014
RJCH 240936Z 09005KT 6000 -SHRA FEW006 BKN010 BKN015 07/07 Q1014 RMK 1ST006 6ST010 7ST015 A2996
RJCH 240900Z 09005KT 7000 -SHRA FEW006 BKN009 BKN012 07/06 Q1014
RJCH 240800Z 09006KT 9999 -SHRA FEW006 BKN009 BKN012 08/06 Q1014
RJCH 240720Z 08006KT 9999 -SHRA FEW006 BKN009 BKN012 08/06 Q1014 RMK 1ST006 6ST009 7ST012 A2997
RJCH 240700Z 08008KT 9999 -SHRA FEW007 BKN010 BKN015 08/06 Q1015
RJCH 240646Z 07005KT 9999 -SHRA FEW007 BKN010 BKN015 08/06 Q1014 RMK 1ST007 5ST010 7ST015 A2997
RJCH 240627Z 09006KT 9999 -SHRA FEW004 BKN007 BKN010 07/06 Q1015 RMK 1ST004 5ST007 7ST010 A2997
RJCH 240600Z 10012KT 9999 -SHRA FEW003 BKN006 BKN009 07/07 Q1015
RJCH 240500Z 08009KT 9999 -SHRA FEW003 BKN007 BKN010 07/06 Q1015
RJCH 240400Z 08008KT 9999 -SHRA FEW004 BKN007 BKN010 07/06 Q1016
RJCH 240317Z 08011KT 8000 -SHRA FEW003 BKN007 BKN010 07/06 Q1016 RMK 1ST003 5ST007 7ST010 A3003
RJCH 240300Z 08012KT 8000 -SHRA FEW004 BKN006 BKN009 07/06 Q1017
RJCH 240221Z 09011KT 7000 -SHRA FEW004 BKN006 BKN008 07/06 Q1017 RMK 1ST004 5ST006 7ST008 A3005
RJCH 240200Z 08012KT 5000 -SHRA BR FEW002 BKN005 BKN008 07/07 Q1017
RJCH 240111Z 07008KT 030V110 5000 -SHRA BR FEW003 BKN005 BKN008 08/07 Q1018 RMK 1ST003 5ST005 7ST008 A3008
RJCH 240100Z 07009KT 040V100 4500 -SHRA BR FEW002 BKN005 BKN008 08/07 Q1018
RJCH 240031Z 07009KT 4900 -SHRA BR FEW002 BKN005 BKN008 08/07 Q1018 RMK 1ST002 5ST005 7ST008 A3008
RJCH 240000Z 07011KT 5000 -SHRA BR FEW002 BKN005 BKN008 07/07 Q1018
RJCH 232346Z 07010KT 5000 -SHRA BR FEW002 BKN006 BKN010 07/07 Q1018 RMK 1ST002 5ST006 7ST010 A3008
RJCH 232300Z 07010KT 6000 -SHRA FEW004 BKN008 BKN010 08/07 Q1019
RJCH 232250Z 07010KT 6000 -SHRA FEW004 BKN008 BKN010 08/07 Q1019 RMK 1ST004 5ST008 7ST010 A3009
RJCH 232236Z 07010KT 6000 -SHRA FEW004 SCT008 BKN010 08/07 Q1019 RMK 1ST004 4ST008 7ST010 A3010
RJCH 232200Z 07009KT 5000 -SHRA BR FEW004 BKN008 BKN010 08/07 Q1019
RJCH 232110Z 07010KT 5000 -SHRA BR FEW003 BKN007 BKN010 08/07 Q1019 RMK 1ST003 5ST007 7ST010 A3010
RJCH 231100Z 06008KT 9999 FEW010 BKN/// 07/04 Q1023
RJCH 231000Z 07003KT 030V100 9999 FEW010 BKN/// 07/03 Q1023
RJCH 230900Z 10008KT 9999 FEW010 BKN/// 09/02 Q1023
RJCH 230800Z 09009KT 9999 FEW010 BKN/// 11/M01 Q1023
RJCH 230700Z 12013KT 9999 FEW007 BKN/// 12/01 Q1023